Latest Coastal Weather Observations for Lockhart River

IDQ60701

Issued at 4:05 am EST Sunday 23 November 2014 (issued every 10 minutes, with the page automatically refreshed every 10 minutes)

About coastal observations | Map of coastal stations | Coastal observations for QLD | Marine services | Other Formats
Station Details ID: 028008 Name: LOCKHART RIVER AIRPORT Lat: -12.79 Lon: 143.30 Height: 18.5 m
Data from the previous 72 hours. | See also: Recent months at Lockhart River
Date/Time
EST
Temp

°C
Wind Pressure Rain
since 9am
mm
Weather Cloud Vis
km
Sea
Height
m
Swell
Dir
 
Speed
knots
Gust
knots
hPa Trend Height
m
Period
s
Dir
23/04:00am 24.9 SSW 2 5 1011.3 - 0.0 - Partly cloudy - - - - -
23/03:30am 25.6 S 5 7 1011.1 - 0.0 - Partly cloudy - - - - -
23/03:00am 26.2 ESE 7 10 1010.9 - 0.0 - Partly cloudy - - - - -
23/02:30am 26.3 ESE 8 13 1011.0 - 0.0 - Partly cloudy - - - - -
23/02:22am 26.3 ESE 8 12 1010.8 - 0.0 - Partly cloudy - - - - -
23/02:00am 26.3 ESE 7 14 1010.9 - 0.0 - Partly cloudy - - - - -
23/01:30am 26.4 E 7 11 1010.9 - 0.0 - Partly cloudy - - - - -
23/01:29am 26.4 E 7 11 1010.9 - 0.0 - Partly cloudy - - - - -
23/01:20am 26.4 E 6 11 1010.9 - 0.0 - Partly cloudy - - - - -
23/01:00am 26.4 ESE 7 13 1011.1 - 0.0 - Partly cloudy - - - - -
23/12:40am 26.5 ESE 7 11 1011.3 - 0.0 - Partly cloudy - - - - -
23/12:39am 26.5 ESE 7 11 1011.3 - 0.0 - Partly cloudy - - - - -
23/12:30am 26.5 ESE 7 9 1011.5 - 0.0 - Partly cloudy - - - - -
23/12:00am 26.6 ESE 7 11 1011.9 - 0.0 - Partly cloudy - - - - -
 
Date/Time
EST
Temp

°C
Wind Pressure Rain
since 9am
mm
Weather Cloud Vis
km
Sea
Height
m
Swell
Dir
 
Speed
knots
Gust
knots
hPa Trend Height
m
Period
s
Dir
22/11:30pm 26.6 ESE 8 12 1012.2 - 0.0 - Partly cloudy - - - - -
22/11:11pm 26.5 ESE 5 8 1012.3 - 0.0 - Partly cloudy - - - - -
22/11:05pm 26.5 ESE 6 9 1012.3 - 0.0 - Partly cloudy - - - - -
22/11:00pm 26.5 ESE 6 9 1012.3 - 0.0 - Partly cloudy - - - - -
22/10:30pm 26.0 SSE 5 6 1012.5 - 0.0 - Partly cloudy - - - - -
22/10:00pm 25.9 SSE 4 5 1012.4 - 0.0 - Partly cloudy - - - - -
22/09:53pm 25.9 SSE 4 5 1012.4 - 0.0 - Partly cloudy - - - - -
22/09:30pm 26.0 SE 5 7 1012.3 - 0.0 - Partly cloudy - - - - -
22/09:00pm 26.2 ESE 6 7 1012.1 - 0.0 - Partly cloudy - - - - -
22/08:30pm 26.2 ESE 5 7 1011.8 - 0.0 - - - - - - -
22/08:00pm 26.4 ESE 7 9 1011.6 - 0.0 - - - - - - -
22/07:30pm 26.7 ESE 8 11 1011.4 - 0.0 - Partly cloudy - - - - -
22/07:00pm 26.9 ESE 9 11 1011.0 - 0.0 - Partly cloudy - - - - -
22/06:30pm 27.4 ESE 9 12 1010.3 - 0.0 - - - - - - -
22/06:00pm 28.1 ESE 10 14 1010.3 - 0.0 - - - - - - -
22/05:30pm 28.8 ESE 10 15 1010.2 - 0.0 - Partly cloudy - - - - -
22/05:00pm 28.7 ESE 10 15 1010.0 - 0.0 - - - - - - -
22/04:30pm 29.4 ESE 10 15 1010.0 - 0.0 - Partly cloudy - - - - -
22/04:00pm 29.7 E 9 14 1009.9 - 0.0 - Partly cloudy - - - - -
22/03:30pm 30.1 E 11 15 1010.0 - 0.0 - Partly cloudy - - - - -
22/03:00pm 30.0 ESE 12 16 1010.3 - 0.0 Haze Partly cloudy 20 - - - -
22/02:30pm 30.3 E 12 17 1010.6 - 0.0 - Partly cloudy - - - - -
22/02:00pm 30.6 ESE 11 16 1010.9 - 0.0 - Partly cloudy - - - - -
22/01:30pm 30.6 E 11 18 1011.2 - 0.0 - Partly cloudy - - - - -
22/01:00pm 30.6 SE 14 17 1011.5 - 0.0 - Partly cloudy - - - - -
22/12:30pm 30.9 E 12 18 1011.9 - 0.0 - Partly cloudy - - - - -
22/12:00pm 30.7 E 12 19 1012.1 - 0.0 - Partly cloudy - - - - -
22/11:30am 30.2 E 11 19 1012.4 - 0.0 - Partly cloudy - - - - -
22/11:00am 30.6 E 12 18 1012.7 - 0.0 - Partly cloudy - - - - -
22/10:30am 30.1 E 11 16 1012.9 - 0.0 - Partly cloudy - - - - -
22/10:00am 30.1 E 11 15 1012.9 - 0.0 - Partly cloudy - - - - -
22/09:30am 30.5 ESE 11 17 1013.1 - 0.0 - Partly cloudy - - - - -
22/09:00am 29.0 E 11 15 1012.8 - 0.0 Fine Partly cloudy 30 - - - -
22/08:30am 28.4 E 9 16 1013.0 - 0.0 - Partly cloudy - - - - -
22/08:00am 27.9 SSE 7 9 1012.8 - 0.0 - Partly cloudy - - - - -
22/07:30am 25.6 SSE 4 5 1012.7 - 0.0 - Partly cloudy - - - - -
22/07:00am 24.1 CALM 0 0 1012.8 - 0.0 - Partly cloudy - - - - -
22/06:30am 22.1 CALM 0 0 1012.5 - 0.0 - Partly cloudy - - - - -
22/06:00am 21.5 CALM 0 0 1011.9 - 0.0 - - - - - - -
22/05:30am 21.7 CALM 0 0 1011.6 - 0.0 - Partly cloudy - - - - -
22/05:00am 22.1 CALM 0 0 1011.2 - 0.0 - Partly cloudy - - - - -
22/04:30am 22.1 CALM 0 0 1010.7 - 0.0 - Partly cloudy - - - - -
22/04:00am 22.5 CALM 0 0 1010.6 - 0.0 - Partly cloudy - - - - -
22/03:30am 22.9 CALM 0 0 1010.5 - 0.0 - - - - - - -
22/03:00am 23.6 CALM 0 0 1010.3 - 0.0 - Partly cloudy - - - - -
22/02:30am 24.1 CALM 0 3 1010.6 - 0.0 - Partly cloudy - - - - -
22/02:00am 24.5 SSE 3 4 1010.9 - 0.0 - Partly cloudy - - - - -
22/01:30am 25.0 S 5 6 1011.1 - 0.0 - Partly cloudy - - - - -
22/01:00am 25.6 SSE 5 7 1011.2 - 0.0 - Partly cloudy - - - - -
22/12:30am 25.9 SSE 5 7 1011.3 - 0.0 - Partly cloudy - - - - -
22/12:00am 26.3 SSE 5 7 1011.4 - 0.0 - Partly cloudy - - - - -
 
Date/Time
EST
Temp

°C
Wind Pressure Rain
since 9am
mm
Weather Cloud Vis
km
Sea
Height
m
Swell
Dir
 
Speed
knots
Gust
knots
hPa Trend Height
m
Period
s
Dir
21/11:30pm 26.3 SSE 6 8 1011.9 - 0.0 - Partly cloudy - - - - -
21/11:00pm 26.4 SSE 6 8 1012.1 - 0.0 - Partly cloudy - - - - -
21/10:30pm 26.5 SE 6 9 1012.3 - 0.0 - Partly cloudy - - - - -
21/10:00pm 26.5 SE 7 9 1012.4 - 0.0 - Partly cloudy - - - - -
21/09:30pm 26.6 SE 8 11 1012.1 - 0.0 - Partly cloudy - - - - -
21/09:00pm 26.6 SE 9 11 1011.9 - 0.0 - Partly cloudy - - - - -
21/08:30pm 26.8 SE 10 13 1011.8 - 0.0 - Partly cloudy - - - - -
21/08:00pm 26.8 SE 9 13 1011.6 - 0.0 - Partly cloudy - - - - -
21/07:30pm 26.9 SE 10 15 1011.2 - 0.0 - Partly cloudy - - - - -
21/07:00pm 27.3 SE 12 16 1011.0 - 0.0 - Partly cloudy - - - - -
21/06:30pm 27.4 ESE 12 17 1010.7 - 0.0 - Partly cloudy - - - - -
21/06:00pm 27.9 SE 12 18 1010.4 - 0.0 - Partly cloudy - - - - -
21/05:30pm 28.5 E 10 15 1010.2 - 0.0 - Partly cloudy - - - - -
21/05:00pm 28.9 ESE 10 15 1009.9 - 0.0 - Partly cloudy - - - - -
21/04:30pm 29.5 ESE 12 17 1009.7 - 0.0 - Partly cloudy - - - - -
21/04:00pm 29.4 E 11 17 1009.7 - 0.0 - Partly cloudy - - - - -
21/03:30pm 29.9 E 11 18 1009.8 - 0.0 - - - - - - -
21/03:00pm 30.5 E 12 17 1010.2 - 0.0 Smoke Partly cloudy 20 - - - -
21/02:30pm 30.3 E 11 18 1010.4 - 0.0 - Partly cloudy - - - - -
21/02:00pm 31.2 E 11 16 1010.7 - 0.0 - Partly cloudy - - - - -
21/01:30pm 30.6 E 13 20 1011.2 - 0.0 - Partly cloudy - - - - -
21/01:00pm 30.6 E 13 21 1011.5 - 0.0 - Partly cloudy - - - - -
21/12:30pm 30.0 E 14 20 1011.9 - 0.0 - Partly cloudy - - - - -
21/12:00pm 30.4 E 13 19 1012.4 - 0.0 - Partly cloudy - - - - -
21/11:30am 31.3 E 14 19 1012.8 - 0.0 - Partly cloudy - - - - -
21/11:00am 30.5 ESE 12 20 1013.2 - 0.0 - Partly cloudy - - - - -
21/10:30am 29.2 ESE 14 20 1013.4 - 0.0 - Partly cloudy - - - - -
21/10:00am 30.1 E 11 18 1013.5 - 0.0 - Partly cloudy - - - - -
21/09:30am 29.7 E 11 17 1013.7 - 0.0 - Partly cloudy - - - - -
21/09:00am 28.5 ESE 10 17 1013.5 - 0.0 Fine Mostly cloudy 20 - - - -
21/08:30am 28.7 ESE 12 17 1013.5 - 0.0 - Partly cloudy - - - - -
21/08:16am 27.8 E 11 17 1013.2 - 0.0 - Partly cloudy - - - - -
21/08:00am 27.8 ESE 11 16 1013.1 - 0.0 - Partly cloudy - - - - -
21/07:30am 27.3 ESE 10 14 1012.6 - 0.0 - Partly cloudy - - - - -
21/07:06am 27.1 ESE 9 16 1012.3 - 0.0 - Partly cloudy - - - - -
21/07:00am 27.0 ESE 10 15 1012.3 - 0.0 - Partly cloudy - - - - -
21/06:30am 26.8 ESE 10 15 1011.8 - 0.0 - Partly cloudy - - - - -
21/06:00am 26.5 SE 10 13 1011.3 - 0.0 - Partly cloudy - - - - -
21/05:30am 26.6 SE 9 12 1011.1 - 0.0 - Partly cloudy - - - - -
21/05:00am 26.4 SE 8 11 1010.8 - 0.0 - Partly cloudy - - - - -
21/04:52am 26.3 SE 9 13 1010.8 - 0.0 - Partly cloudy - - - - -
21/04:30am 26.6 SE 8 10 1010.7 - 0.0 - Partly cloudy - - - - -
21/04:00am 26.7 ESE 7 11 1010.5 - 0.0 - Partly cloudy - - - - -
21/03:30am 26.6 ESE 8 12 1010.4 - 0.0 - Cloudy - - - - -
21/03:00am 26.5 ESE 9 11 1010.4 - 0.0 - Partly cloudy - - - - -
21/02:30am 26.8 ESE 8 12 1010.6 - 0.0 - Partly cloudy - - - - -
21/02:00am 26.7 ESE 9 13 1010.9 - 0.0 - Cloudy - - - - -
21/01:30am 27.0 SE 10 13 1011.1 - 0.0 - Partly cloudy - - - - -
21/01:00am 26.9 ESE 8 12 1011.6 - 0.0 - Partly cloudy - - - - -
21/12:31am 27.0 ESE 8 12 1012.0 - 0.0 - Partly cloudy - - - - -
21/12:30am 27.0 ESE 8 12 1012.0 - 0.0 - Partly cloudy - - - - -
21/12:12am 27.0 ESE 10 13 1012.2 - 0.0 - Partly cloudy - - - - -
21/12:00am 27.1 ESE 9 13 1012.2 - 0.0 - Partly cloudy - - - - -
 
Date/Time
EST
Temp

°C
Wind Pressure Rain
since 9am
mm
Weather Cloud Vis
km
Sea
Height
m
Swell
Dir
 
Speed
knots
Gust
knots
hPa Trend Height
m
Period
s
Dir
20/11:53pm 27.1 ESE 9 13 1012.4 - 0.0 - Partly cloudy - - - - -
20/11:36pm 27.1 ESE 9 15 1012.7 - 0.0 - Partly cloudy - - - - -
20/11:30pm 27.1 ESE 8 15 1012.7 - 0.0 - Partly cloudy - - - - -
20/11:00pm 27.1 ESE 11 17 1012.8 - 0.0 - Partly cloudy - - - - -
20/10:30pm 27.1 ESE 7 10 1013.0 - 0.0 - Partly cloudy - - - - -
20/10:29pm 27.1 ESE 7 10 1013.0 - 0.0 - Partly cloudy - - - - -
20/10:00pm 27.2 ESE 8 11 1012.8 - 0.0 - Partly cloudy - - - - -
20/09:30pm 27.4 ESE 9 13 1012.6 - 0.0 - Partly cloudy - - - - -
20/09:17pm 27.4 ESE 7 10 1012.6 - 0.0 - Partly cloudy - - - - -
20/09:16pm 27.4 ESE 7 10 1012.6 - 0.0 - Partly cloudy - - - - -
20/09:00pm 27.5 ESE 9 12 1012.2 - 0.0 - Partly cloudy - - - - -
20/08:30pm 27.3 ESE 7 11 1012.1 - 0.0 - Partly cloudy - - - - -
20/08:00pm 27.4 ESE 10 14 1011.7 - 0.0 - Partly cloudy - - - - -
20/07:30pm 27.3 ESE 6 9 1011.4 - 0.0 - Partly cloudy - - - - -
20/07:00pm 27.5 ESE 9 15 1011.1 - 0.0 - Partly cloudy - - - - -
20/06:50pm 27.7 ESE 8 13 1010.9 - 0.0 - Partly cloudy - - - - -
20/06:30pm 27.8 ESE 10 13 1010.9 - 0.0 - - - - - - -
20/06:00pm 28.0 ESE 9 14 1010.6 - 0.0 - Partly cloudy - - - - -
20/05:30pm 28.7 ESE 9 13 1010.6 - 0.0 - Partly cloudy - - - - -
20/05:00pm 29.0 E 11 16 1010.4 - 0.0 - Partly cloudy - - - - -
20/04:30pm 30.4 ESE 12 17 1010.3 - 0.0 - Partly cloudy - - - - -
20/04:00pm 29.8 E 13 19 1010.4 - 0.0 - Partly cloudy - - - - -
20/03:30pm 30.2 ESE 13 19 1010.6 - 0.0 - Partly cloudy - - - - -
20/03:00pm 30.5 E 13 20 1010.6 - 0.0 Fine Partly cloudy 20 - - - -
20/02:30pm 30.6 E 13 22 1010.8 - 0.0 - Partly cloudy - - - - -
20/02:00pm 31.0 E 13 21 1011.0 - 0.0 - Partly cloudy - - - - -
20/01:30pm 30.7 E 14 19 1011.3 - 0.0 - Partly cloudy - - - - -
20/01:00pm 30.8 E 14 21 1011.7 - 0.0 - Partly cloudy - - - - -
20/12:30pm 30.9 E 13 19 1012.3 - 0.0 - Partly cloudy - - - - -
20/12:00pm 30.4 E 14 23 1012.5 - 0.0 - Partly cloudy - - - - -
20/11:30am 30.8 ESE 14 19 1013.0 - 0.0 - Partly cloudy - - - - -
20/11:00am 30.9 E 13 19 1013.1 - 0.0 - Partly cloudy - - - - -
20/10:30am 30.0 E 13 22 1013.2 - 0.0 - Partly cloudy - - - - -
20/10:00am 30.5 ESE 14 21 1013.5 - 0.0 - Partly cloudy - - - - -
20/09:30am 29.4 ESE 13 19 1013.5 - 0.0 - Partly cloudy - - - - -
20/09:00am 29.4 ESE 14 20 1013.1 - 0.0 Fine Partly cloudy 18 - - - -
20/08:30am 28.6 E 12 17 1013.0 - 0.0 - Partly cloudy - - - - -
20/08:00am 28.3 ESE 13 21 1012.8 - 0.0 - Partly cloudy - - - - -
20/07:30am 27.6 E 9 15 1012.5 - 0.0 - Partly cloudy - - - - -
20/07:24am 27.7 ESE 11 17 1012.4 - 0.0 - Partly cloudy - - - - -
20/07:10am 27.4 ESE 10 13 1012.4 - 0.0 - Partly cloudy - - - - -
20/07:00am 27.0 ESE 9 13 1012.3 - 0.0 - Partly cloudy - - - - -
20/06:56am 27.0 ESE 9 13 1012.3 - 0.0 - Partly cloudy - - - - -
20/06:30am 26.7 ESE 7 9 1012.0 - 0.0 - Partly cloudy - - - - -
20/06:02am 26.5 ESE 7 11 1011.5 - 0.0 - Partly cloudy - - - - -
20/06:00am 26.5 ESE 7 11 1011.5 - 0.0 - Partly cloudy - - - - -
20/05:30am 26.6 E 5 9 1011.3 - 0.0 - Partly cloudy - - - - -
20/05:00am 26.6 E 6 11 1010.9 - 0.0 - Partly cloudy - - - - -
20/04:30am 26.5 ESE 7 11 1010.6 - 0.0 - Partly cloudy - - - - -

Other Formats:

Comma delimited format used in spreadsheet applications
http://www.bom.gov.au/fwo/IDQ60701/IDQ60701.94186.axf

JavaScript Object Notation format (JSON) in row-major order
http://www.bom.gov.au/fwo/IDQ60701/IDQ60701.94186.json